sensor_id;sensor_type;location;lat;lon;timestamp;temperature;humidity
9802;DHT22;4940;50.900;4.672;2023-09-19T00:00:09;16.20;99.90
9802;DHT22;4940;50.900;4.672;2023-09-19T00:02:38;16.20;99.90
9802;DHT22;4940;50.900;4.672;2023-09-19T00:05:06;16.20;99.90
9802;DHT22;4940;50.900;4.672;2023-09-19T00:07:35;16.20;99.90
9802;DHT22;4940;50.900;4.672;2023-09-19T00:10:03;16.20;99.90
9802;DHT22;4940;50.900;4.672;2023-09-19T00:12:31;16.10;99.90
9802;DHT22;4940;50.900;4.672;2023-09-19T00:17:28;16.10;99.90
9802;DHT22;4940;50.900;4.672;2023-09-19T00:19:57;16.10;99.90
9802;DHT22;4940;50.900;4.672;2023-09-19T00:32:16;16.10;99.90
9802;DHT22;4940;50.900;4.672;2023-09-19T00:34:44;16.10;99.90
9802;DHT22;4940;50.900;4.672;2023-09-19T00:37:12;16.00;99.90
9802;DHT22;4940;50.900;4.672;2023-09-19T00:39:40;16.10;99.90
9802;DHT22;4940;50.900;4.672;2023-09-19T00:44:35;16.10;99.90
9802;DHT22;4940;50.900;4.672;2023-09-19T00:47:02;16.10;99.90
9802;DHT22;4940;50.900;4.672;2023-09-19T00:49:30;16.10;99.90
9802;DHT22;4940;50.900;4.672;2023-09-19T00:52:00;16.10;99.90
9802;DHT22;4940;50.900;4.672;2023-09-19T00:56:55;16.10;99.90
9802;DHT22;4940;50.900;4.672;2023-09-19T00:59:22;16.10;99.90
9802;DHT22;4940;50.900;4.672;2023-09-19T01:01:50;16.10;99.90
9802;DHT22;4940;50.900;4.672;2023-09-19T01:06:47;16.00;99.90
9802;DHT22;4940;50.900;4.672;2023-09-19T01:09:20;16.00;99.90
9802;DHT22;4940;50.900;4.672;2023-09-19T01:11:49;16.00;99.90
9802;DHT22;4940;50.900;4.672;2023-09-19T01:14:25;16.00;99.90
9802;DHT22;4940;50.900;4.672;2023-09-19T01:17:03;16.00;99.90
9802;DHT22;4940;50.900;4.672;2023-09-19T01:20:15;15.80;99.90
9802;DHT22;4940;50.900;4.672;2023-09-19T01:22:53;15.90;99.90
9802;DHT22;4940;50.900;4.672;2023-09-19T01:25:50;16.00;99.90
9802;DHT22;4940;50.900;4.672;2023-09-19T01:28:31;15.90;99.90
9802;DHT22;4940;50.900;4.672;2023-09-19T01:31:06;15.80;99.90
9802;DHT22;4940;50.900;4.672;2023-09-19T01:33:54;15.80;99.90
9802;DHT22;4940;50.900;4.672;2023-09-19T01:38:51;15.70;99.90
9802;DHT22;4940;50.900;4.672;2023-09-19T01:41:24;15.70;99.90
9802;DHT22;4940;50.900;4.672;2023-09-19T01:43:53;15.70;99.90
9802;DHT22;4940;50.900;4.672;2023-09-19T01:46:25;15.70;99.90
9802;DHT22;4940;50.900;4.672;2023-09-19T01:49:01;15.70;99.90
9802;DHT22;4940;50.900;4.672;2023-09-19T01:51:37;15.60;99.90
9802;DHT22;4940;50.900;4.672;2023-09-19T01:54:10;15.60;99.90
9802;DHT22;4940;50.900;4.672;2023-09-19T01:56:50;15.60;99.90
9802;DHT22;4940;50.900;4.672;2023-09-19T01:59:22;15.40;99.90
9802;DHT22;4940;50.900;4.672;2023-09-19T02:01:55;15.50;99.90
9802;DHT22;4940;50.900;4.672;2023-09-19T02:06:53;15.50;99.90
9802;DHT22;4940;50.900;4.672;2023-09-19T02:09:21;15.50;99.90
9802;DHT22;4940;50.900;4.672;2023-09-19T02:11:48;15.50;99.90
9802;DHT22;4940;50.900;4.672;2023-09-19T02:14:16;15.50;99.90
9802;DHT22;4940;50.900;4.672;2023-09-19T02:16:45;15.50;99.90
9802;DHT22;4940;50.900;4.672;2023-09-19T02:19:14;15.50;99.90
9802;DHT22;4940;50.900;4.672;2023-09-19T02:21:41;15.40;99.90
9802;DHT22;4940;50.900;4.672;2023-09-19T02:24:08;15.40;99.90
9802;DHT22;4940;50.900;4.672;2023-09-19T02:26:36;15.40;99.90
9802;DHT22;4940;50.900;4.672;2023-09-19T02:29:03;15.40;99.90
9802;DHT22;4940;50.900;4.672;2023-09-19T02:31:31;15.50;99.90
9802;DHT22;4940;50.900;4.672;2023-09-19T02:33:58;15.40;99.90
9802;DHT22;4940;50.900;4.672;2023-09-19T02:36:28;15.40;99.90
9802;DHT22;4940;50.900;4.672;2023-09-19T02:41:24;15.50;99.90
9802;DHT22;4940;50.900;4.672;2023-09-19T02:43:51;15.50;99.90
9802;DHT22;4940;50.900;4.672;2023-09-19T02:48:47;15.60;99.90
9802;DHT22;4940;50.900;4.672;2023-09-19T02:51:15;15.60;99.90
9802;DHT22;4940;50.900;4.672;2023-09-19T02:53:44;15.60;99.90
9802;DHT22;4940;50.900;4.672;2023-09-19T02:56:13;15.60;99.90
9802;DHT22;4940;50.900;4.672;2023-09-19T02:58:41;15.70;99.90
9802;DHT22;4940;50.900;4.672;2023-09-19T03:01:09;15.70;99.90
9802;DHT22;4940;50.900;4.672;2023-09-19T03:03:37;15.70;99.90
9802;DHT22;4940;50.900;4.672;2023-09-19T03:06:05;15.70;99.90
9802;DHT22;4940;50.900;4.672;2023-09-19T03:08:34;15.80;99.90
9802;DHT22;4940;50.900;4.672;2023-09-19T03:11:05;15.80;99.90
9802;DHT22;4940;50.900;4.672;2023-09-19T03:16:02;15.80;99.90
9802;DHT22;4940;50.900;4.672;2023-09-19T03:20:59;15.80;99.90
9802;DHT22;4940;50.900;4.672;2023-09-19T03:23:27;15.80;99.90
9802;DHT22;4940;50.900;4.672;2023-09-19T03:28:23;15.80;99.90
9802;DHT22;4940;50.900;4.672;2023-09-19T03:31:00;15.80;99.90
9802;DHT22;4940;50.900;4.672;2023-09-19T03:33:27;15.90;99.90
9802;DHT22;4940;50.900;4.672;2023-09-19T03:35:57;15.70;99.90
9802;DHT22;4940;50.900;4.672;2023-09-19T03:38:25;15.70;99.90
9802;DHT22;4940;50.900;4.672;2023-09-19T03:43:20;15.70;99.90
9802;DHT22;4940;50.900;4.672;2023-09-19T03:45:49;15.70;99.90
9802;DHT22;4940;50.900;4.672;2023-09-19T03:48:16;15.70;99.90
9802;DHT22;4940;50.900;4.672;2023-09-19T03:50:45;15.70;99.90
9802;DHT22;4940;50.900;4.672;2023-09-19T03:53:13;15.80;99.90
9802;DHT22;4940;50.900;4.672;2023-09-19T03:58:08;15.80;99.90
9802;DHT22;4940;50.900;4.672;2023-09-19T04:00:35;15.80;99.90
9802;DHT22;4940;50.900;4.672;2023-09-19T04:03:04;15.80;99.90
9802;DHT22;4940;50.900;4.672;2023-09-19T04:05:32;15.70;99.90
9802;DHT22;4940;50.900;4.672;2023-09-19T04:08:00;15.70;99.90
9802;DHT22;4940;50.900;4.672;2023-09-19T04:10:27;15.60;99.90
9802;DHT22;4940;50.900;4.672;2023-09-19T04:12:56;15.50;99.90
9802;DHT22;4940;50.900;4.672;2023-09-19T04:15:24;15.50;99.90
9802;DHT22;4940;50.900;4.672;2023-09-19T04:17:51;15.40;99.90
9802;DHT22;4940;50.900;4.672;2023-09-19T04:20:20;15.40;99.90
9802;DHT22;4940;50.900;4.672;2023-09-19T04:25:16;15.30;99.90
9802;DHT22;4940;50.900;4.672;2023-09-19T04:27:44;15.20;99.90
9802;DHT22;4940;50.900;4.672;2023-09-19T04:35:09;15.10;99.90
9802;DHT22;4940;50.900;4.672;2023-09-19T04:37:39;15.10;99.90
9802;DHT22;4940;50.900;4.672;2023-09-19T04:40:08;15.20;99.90
9802;DHT22;4940;50.900;4.672;2023-09-19T04:42:39;15.10;99.90
9802;DHT22;4940;50.900;4.672;2023-09-19T04:45:08;15.00;99.90
9802;DHT22;4940;50.900;4.672;2023-09-19T04:47:36;15.00;99.90
9802;DHT22;4940;50.900;4.672;2023-09-19T04:50:07;15.00;99.90
9802;DHT22;4940;50.900;4.672;2023-09-19T04:52:40;14.90;99.90
9802;DHT22;4940;50.900;4.672;2023-09-19T04:55:10;14.90;99.90
9802;DHT22;4940;50.900;4.672;2023-09-19T04:57:39;14.90;99.90
9802;DHT22;4940;50.900;4.672;2023-09-19T05:00:07;14.90;99.90
9802;DHT22;4940;50.900;4.672;2023-09-19T05:02:38;14.90;99.90
9802;DHT22;4940;50.900;4.672;2023-09-19T05:05:07;14.90;99.90
9802;DHT22;4940;50.900;4.672;2023-09-19T05:07:36;14.80;99.90
9802;DHT22;4940;50.900;4.672;2023-09-19T05:10:06;14.90;99.90
9802;DHT22;4940;50.900;4.672;2023-09-19T05:12:33;14.80;99.90
9802;DHT22;4940;50.900;4.672;2023-09-19T05:15:01;14.50;99.90
9802;DHT22;4940;50.900;4.672;2023-09-19T05:17:29;14.90;99.90
9802;DHT22;4940;50.900;4.672;2023-09-19T05:19:57;14.90;99.90
9802;DHT22;4940;50.900;4.672;2023-09-19T05:22:27;14.90;99.90
9802;DHT22;4940;50.900;4.672;2023-09-19T05:24:55;14.90;99.90
9802;DHT22;4940;50.900;4.672;2023-09-19T05:27:23;14.90;99.90
9802;DHT22;4940;50.900;4.672;2023-09-19T05:29:50;14.90;99.90
9802;DHT22;4940;50.900;4.672;2023-09-19T05:39:42;14.80;99.90
9802;DHT22;4940;50.900;4.672;2023-09-19T05:44:38;14.80;99.90
9802;DHT22;4940;50.900;4.672;2023-09-19T05:49:35;14.80;99.90
9802;DHT22;4940;50.900;4.672;2023-09-19T05:52:05;14.90;99.90
9802;DHT22;4940;50.900;4.672;2023-09-19T05:54:32;15.00;99.90
9802;DHT22;4940;50.900;4.672;2023-09-19T05:59:27;14.90;99.90
9802;DHT22;4940;50.900;4.672;2023-09-19T06:01:57;15.50;99.90
9802;DHT22;4940;50.900;4.672;2023-09-19T06:04:25;14.90;99.90
9802;DHT22;4940;50.900;4.672;2023-09-19T06:06:52;15.00;99.90
9802;DHT22;4940;50.900;4.672;2023-09-19T06:09:20;15.00;99.90
9802;DHT22;4940;50.900;4.672;2023-09-19T06:14:17;15.00;99.90
9802;DHT22;4940;50.900;4.672;2023-09-19T06:19:14;15.10;99.90
9802;DHT22;4940;50.900;4.672;2023-09-19T06:29:05;15.40;99.90
9802;DHT22;4940;50.900;4.672;2023-09-19T06:36:30;15.60;99.90
9802;DHT22;4940;50.900;4.672;2023-09-19T06:38:57;15.50;99.90
9802;DHT22;4940;50.900;4.672;2023-09-19T06:41:25;15.60;99.90
9802;DHT22;4940;50.900;4.672;2023-09-19T06:43:52;15.60;99.90
9802;DHT22;4940;50.900;4.672;2023-09-19T06:51:15;15.80;99.90
9802;DHT22;4940;50.900;4.672;2023-09-19T06:53:44;15.90;99.90
9802;DHT22;4940;50.900;4.672;2023-09-19T07:01:09;16.00;99.90
9802;DHT22;4940;50.900;4.672;2023-09-19T07:03:36;16.10;99.90
9802;DHT22;4940;50.900;4.672;2023-09-19T07:06:07;16.20;99.90
9802;DHT22;4940;50.900;4.672;2023-09-19T07:08:35;16.20;99.90
9802;DHT22;4940;50.900;4.672;2023-09-19T07:11:03;16.30;99.90
9802;DHT22;4940;50.900;4.672;2023-09-19T07:13:32;16.20;99.90
9802;DHT22;4940;50.900;4.672;2023-09-19T07:15:59;16.40;99.90
9802;DHT22;4940;50.900;4.672;2023-09-19T07:20:57;16.30;99.90
9802;DHT22;4940;50.900;4.672;2023-09-19T07:23:31;16.50;99.90
9802;DHT22;4940;50.900;4.672;2023-09-19T07:26:01;16.60;99.90
9802;DHT22;4940;50.900;4.672;2023-09-19T07:28:32;16.70;99.90
9802;DHT22;4940;50.900;4.672;2023-09-19T07:31:02;16.70;99.90
9802;DHT22;4940;50.900;4.672;2023-09-19T07:33:31;17.00;99.90
9802;DHT22;4940;50.900;4.672;2023-09-19T07:35:58;17.30;99.90
9802;DHT22;4940;50.900;4.672;2023-09-19T07:38:26;17.60;99.90
9802;DHT22;4940;50.900;4.672;2023-09-19T07:41:00;17.90;99.90
9802;DHT22;4940;50.900;4.672;2023-09-19T07:43:28;18.30;99.90
9802;DHT22;4940;50.900;4.672;2023-09-19T07:46:03;18.50;99.90
9802;DHT22;4940;50.900;4.672;2023-09-19T07:51:02;19.10;99.90
9802;DHT22;4940;50.900;4.672;2023-09-19T07:53:30;19.30;99.90
9802;DHT22;4940;50.900;4.672;2023-09-19T07:56:04;19.60;99.90
9802;DHT22;4940;50.900;4.672;2023-09-19T08:01:04;19.90;99.90
9802;DHT22;4940;50.900;4.672;2023-09-19T08:03:34;20.10;99.90
9802;DHT22;4940;50.900;4.672;2023-09-19T08:08:34;20.40;99.90
9802;DHT22;4940;50.900;4.672;2023-09-19T08:11:03;20.60;99.90
9802;DHT22;4940;50.900;4.672;2023-09-19T08:13:36;20.70;99.90
9802;DHT22;4940;50.900;4.672;2023-09-19T08:16:11;20.90;99.90
9802;DHT22;4940;50.900;4.672;2023-09-19T08:18:38;21.00;99.90
9802;DHT22;4940;50.900;4.672;2023-09-19T08:21:06;21.10;99.90
9802;DHT22;4940;50.900;4.672;2023-09-19T08:23:36;21.30;99.90
9802;DHT22;4940;50.900;4.672;2023-09-19T08:26:04;21.50;99.90
9802;DHT22;4940;50.900;4.672;2023-09-19T08:28:34;21.70;99.90
9802;DHT22;4940;50.900;4.672;2023-09-19T08:31:02;21.90;99.90
9802;DHT22;4940;50.900;4.672;2023-09-19T08:33:33;22.00;99.90
9802;DHT22;4940;50.900;4.672;2023-09-19T08:36:01;22.20;99.90
9802;DHT22;4940;50.900;4.672;2023-09-19T08:38:31;22.40;99.90
9802;DHT22;4940;50.900;4.672;2023-09-19T08:40:59;22.60;99.90
9802;DHT22;4940;50.900;4.672;2023-09-19T08:45:58;22.80;99.90
9802;DHT22;4940;50.900;4.672;2023-09-19T08:48:30;22.90;99.90
9802;DHT22;4940;50.900;4.672;2023-09-19T08:51:03;22.90;99.90
9802;DHT22;4940;50.900;4.672;2023-09-19T08:53:36;23.10;99.90
9802;DHT22;4940;50.900;4.672;2023-09-19T08:56:10;23.20;99.90
9802;DHT22;4940;50.900;4.672;2023-09-19T08:58:44;23.40;99.90
9802;DHT22;4940;50.900;4.672;2023-09-19T09:01:14;23.60;99.90
9802;DHT22;4940;50.900;4.672;2023-09-19T09:03:43;23.60;99.90
9802;DHT22;4940;50.900;4.672;2023-09-19T09:06:14;23.70;99.90
9802;DHT22;4940;50.900;4.672;2023-09-19T09:08:43;23.80;99.90
9802;DHT22;4940;50.900;4.672;2023-09-19T09:11:16;23.90;99.90
9802;DHT22;4940;50.900;4.672;2023-09-19T09:13:46;24.10;99.90
9802;DHT22;4940;50.900;4.672;2023-09-19T09:16:14;24.20;99.90
9802;DHT22;4940;50.900;4.672;2023-09-19T09:21:13;24.30;99.90
9802;DHT22;4940;50.900;4.672;2023-09-19T09:23:41;24.40;99.90
9802;DHT22;4940;50.900;4.672;2023-09-19T09:28:45;24.40;99.90
9802;DHT22;4940;50.900;4.672;2023-09-19T09:31:23;24.40;99.90
9802;DHT22;4940;50.900;4.672;2023-09-19T09:36:35;24.40;99.90
9802;DHT22;4940;50.900;4.672;2023-09-19T09:39:03;24.30;99.90
9802;DHT22;4940;50.900;4.672;2023-09-19T09:41:44;24.50;99.90
9802;DHT22;4940;50.900;4.672;2023-09-19T09:44:15;24.50;99.90
9802;DHT22;4940;50.900;4.672;2023-09-19T09:46:43;24.40;99.90
9802;DHT22;4940;50.900;4.672;2023-09-19T09:49:47;24.30;99.90
9802;DHT22;4940;50.900;4.672;2023-09-19T09:52:21;24.20;99.90
9802;DHT22;4940;50.900;4.672;2023-09-19T09:54:59;24.20;99.90
9802;DHT22;4940;50.900;4.672;2023-09-19T09:57:28;24.00;99.90
9802;DHT22;4940;50.900;4.672;2023-09-19T09:59:57;23.90;99.90
9802;DHT22;4940;50.900;4.672;2023-09-19T10:02:28;23.80;99.90
9802;DHT22;4940;50.900;4.672;2023-09-19T10:04:59;23.70;99.90
9802;DHT22;4940;50.900;4.672;2023-09-19T10:07:37;23.50;99.90
9802;DHT22;4940;50.900;4.672;2023-09-19T10:12:44;23.60;99.90
9802;DHT22;4940;50.900;4.672;2023-09-19T10:15:15;23.30;99.90
9802;DHT22;4940;50.900;4.672;2023-09-19T10:17:46;23.30;99.90
9802;DHT22;4940;50.900;4.672;2023-09-19T10:20:14;23.40;99.90
9802;DHT22;4940;50.900;4.672;2023-09-19T10:23:10;23.60;99.90
9802;DHT22;4940;50.900;4.672;2023-09-19T10:25:40;23.40;99.90
9802;DHT22;4940;50.900;4.672;2023-09-19T10:28:08;23.70;99.90
9802;DHT22;4940;50.900;4.672;2023-09-19T10:30:39;23.60;99.90
9802;DHT22;4940;50.900;4.672;2023-09-19T10:33:11;23.50;99.90
9802;DHT22;4940;50.900;4.672;2023-09-19T10:35:39;23.80;99.90
9802;DHT22;4940;50.900;4.672;2023-09-19T10:38:12;24.00;99.90
9802;DHT22;4940;50.900;4.672;2023-09-19T10:40:40;24.10;99.90
9802;DHT22;4940;50.900;4.672;2023-09-19T10:43:12;24.20;99.90
9802;DHT22;4940;50.900;4.672;2023-09-19T10:45:41;24.40;99.90
9802;DHT22;4940;50.900;4.672;2023-09-19T10:48:10;24.60;99.90
9802;DHT22;4940;50.900;4.672;2023-09-19T10:50:44;24.60;99.90
9802;DHT22;4940;50.900;4.672;2023-09-19T10:53:15;24.80;99.90
9802;DHT22;4940;50.900;4.672;2023-09-19T10:55:50;24.90;99.90
9802;DHT22;4940;50.900;4.672;2023-09-19T10:58:29;25.00;99.90
9802;DHT22;4940;50.900;4.672;2023-09-19T11:01:00;25.10;99.90
9802;DHT22;4940;50.900;4.672;2023-09-19T11:03:35;25.70;99.90
9802;DHT22;4940;50.900;4.672;2023-09-19T11:06:11;25.20;99.90
9802;DHT22;4940;50.900;4.672;2023-09-19T11:08:59;25.30;99.90
9802;DHT22;4940;50.900;4.672;2023-09-19T11:11:49;25.30;99.90
9802;DHT22;4940;50.900;4.672;2023-09-19T11:14:39;27.50;99.90
9802;DHT22;4940;50.900;4.672;2023-09-19T11:17:31;25.40;99.90
9802;DHT22;4940;50.900;4.672;2023-09-19T11:20:22;25.50;99.90
9802;DHT22;4940;50.900;4.672;2023-09-19T11:23:20;25.50;99.90
9802;DHT22;4940;50.900;4.672;2023-09-19T11:25:54;25.70;99.90
9802;DHT22;4940;50.900;4.672;2023-09-19T11:28:31;25.70;99.90
9802;DHT22;4940;50.900;4.672;2023-09-19T11:30:58;25.70;99.90
9802;DHT22;4940;50.900;4.672;2023-09-19T11:33:27;24.60;99.90
9802;DHT22;4940;50.900;4.672;2023-09-19T11:36:02;25.60;99.90
9802;DHT22;4940;50.900;4.672;2023-09-19T11:38:58;25.70;99.90
9802;DHT22;4940;50.900;4.672;2023-09-19T11:41:41;25.50;99.90
9802;DHT22;4940;50.900;4.672;2023-09-19T11:44:32;26.00;99.90
9802;DHT22;4940;50.900;4.672;2023-09-19T11:47:06;25.10;99.90
9802;DHT22;4940;50.900;4.672;2023-09-19T11:49:35;24.90;99.90
9802;DHT22;4940;50.900;4.672;2023-09-19T11:52:14;24.80;99.90
9802;DHT22;4940;50.900;4.672;2023-09-19T11:54:55;24.70;99.90
9802;DHT22;4940;50.900;4.672;2023-09-19T11:57:26;24.60;99.90
9802;DHT22;4940;50.900;4.672;2023-09-19T11:59:54;24.60;99.90
9802;DHT22;4940;50.900;4.672;2023-09-19T12:02:39;24.40;99.90
9802;DHT22;4940;50.900;4.672;2023-09-19T12:05:08;24.10;99.90
9802;DHT22;4940;50.900;4.672;2023-09-19T12:07:42;23.90;99.90
9802;DHT22;4940;50.900;4.672;2023-09-19T12:10:11;23.80;99.90
9802;DHT22;4940;50.900;4.672;2023-09-19T12:12:47;23.70;99.90
9802;DHT22;4940;50.900;4.672;2023-09-19T12:15:23;23.60;99.90
9802;DHT22;4940;50.900;4.672;2023-09-19T12:17:54;23.50;99.90
9802;DHT22;4940;50.900;4.672;2023-09-19T12:20:21;23.50;99.90
9802;DHT22;4940;50.900;4.672;2023-09-19T12:22:52;23.40;99.90
9802;DHT22;4940;50.900;4.672;2023-09-19T12:25:21;23.40;99.90
9802;DHT22;4940;50.900;4.672;2023-09-19T12:27:52;23.40;99.90
9802;DHT22;4940;50.900;4.672;2023-09-19T12:30:27;23.30;99.90
9802;DHT22;4940;50.900;4.672;2023-09-19T12:32:59;24.80;99.90
9802;DHT22;4940;50.900;4.672;2023-09-19T12:35:29;23.20;99.90
9802;DHT22;4940;50.900;4.672;2023-09-19T12:38:00;23.10;99.90
9802;DHT22;4940;50.900;4.672;2023-09-19T12:40:30;23.10;99.90
9802;DHT22;4940;50.900;4.672;2023-09-19T12:43:00;23.00;99.90
9802;DHT22;4940;50.900;4.672;2023-09-19T12:45:30;23.10;99.90
9802;DHT22;4940;50.900;4.672;2023-09-19T12:48:20;23.00;99.90
9802;DHT22;4940;50.900;4.672;2023-09-19T12:51:05;23.00;99.90
9802;DHT22;4940;50.900;4.672;2023-09-19T12:53:38;23.00;99.90
9802;DHT22;4940;50.900;4.672;2023-09-19T12:56:08;23.00;99.90
9802;DHT22;4940;50.900;4.672;2023-09-19T12:58:50;23.10;99.90
9802;DHT22;4940;50.900;4.672;2023-09-19T13:01:17;23.10;99.90
9802;DHT22;4940;50.900;4.672;2023-09-19T13:06:12;23.20;99.90
9802;DHT22;4940;50.900;4.672;2023-09-19T13:08:43;23.20;99.90
9802;DHT22;4940;50.900;4.672;2023-09-19T13:11:15;23.20;99.90
9802;DHT22;4940;50.900;4.672;2023-09-19T13:13:45;23.50;99.90
9802;DHT22;4940;50.900;4.672;2023-09-19T13:16:16;23.20;99.90
9802;DHT22;4940;50.900;4.672;2023-09-19T13:18:48;23.20;99.90
9802;DHT22;4940;50.900;4.672;2023-09-19T13:21:28;23.20;99.90
9802;DHT22;4940;50.900;4.672;2023-09-19T13:24:19;23.20;99.90
9802;DHT22;4940;50.900;4.672;2023-09-19T13:26:46;23.10;99.90
9802;DHT22;4940;50.900;4.672;2023-09-19T13:29:14;23.00;99.90
9802;DHT22;4940;50.900;4.672;2023-09-19T13:31:47;23.00;99.90
9802;DHT22;4940;50.900;4.672;2023-09-19T13:34:14;22.80;99.90
9802;DHT22;4940;50.900;4.672;2023-09-19T13:36:43;22.60;99.90
9802;DHT22;4940;50.900;4.672;2023-09-19T13:39:12;23.60;99.90
9802;DHT22;4940;50.900;4.672;2023-09-19T13:44:09;22.80;99.90
9802;DHT22;4940;50.900;4.672;2023-09-19T13:46:37;22.70;99.90
9802;DHT22;4940;50.900;4.672;2023-09-19T13:49:06;22.70;99.90
9802;DHT22;4940;50.900;4.672;2023-09-19T13:51:33;22.70;99.90
9802;DHT22;4940;50.900;4.672;2023-09-19T13:54:01;22.70;99.90
9802;DHT22;4940;50.900;4.672;2023-09-19T13:56:28;22.70;99.90
9802;DHT22;4940;50.900;4.672;2023-09-19T13:58:57;22.50;99.90
9802;DHT22;4940;50.900;4.672;2023-09-19T14:01:24;22.60;99.90
9802;DHT22;4940;50.900;4.672;2023-09-19T14:03:53;22.70;99.90
9802;DHT22;4940;50.900;4.672;2023-09-19T14:06:24;22.70;99.90
9802;DHT22;4940;50.900;4.672;2023-09-19T14:08:51;22.70;99.90
9802;DHT22;4940;50.900;4.672;2023-09-19T14:13:46;22.70;99.90
9802;DHT22;4940;50.900;4.672;2023-09-19T14:16:17;23.70;99.90
9802;DHT22;4940;50.900;4.672;2023-09-19T14:18:45;22.80;99.90
9802;DHT22;4940;50.900;4.672;2023-09-19T14:21:13;22.80;99.90
9802;DHT22;4940;50.900;4.672;2023-09-19T14:23:42;22.80;99.90
9802;DHT22;4940;50.900;4.672;2023-09-19T14:26:09;27.30;99.90
9802;DHT22;4940;50.900;4.672;2023-09-19T14:28:37;22.70;99.90
9802;DHT22;4940;50.900;4.672;2023-09-19T14:31:06;22.60;99.90
9802;DHT22;4940;50.900;4.672;2023-09-19T14:33:33;22.50;99.90
9802;DHT22;4940;50.900;4.672;2023-09-19T14:36:03;22.50;99.90
9802;DHT22;4940;50.900;4.672;2023-09-19T14:38:32;22.50;99.90
9802;DHT22;4940;50.900;4.672;2023-09-19T14:41:02;22.50;99.90
9802;DHT22;4940;50.900;4.672;2023-09-19T14:43:30;22.50;99.90
9802;DHT22;4940;50.900;4.672;2023-09-19T14:46:02;22.60;99.90
9802;DHT22;4940;50.900;4.672;2023-09-19T14:48:30;22.60;99.90
9802;DHT22;4940;50.900;4.672;2023-09-19T14:51:02;22.80;99.90
9802;DHT22;4940;50.900;4.672;2023-09-19T14:53:29;22.60;99.90
9802;DHT22;4940;50.900;4.672;2023-09-19T14:58:25;22.70;99.90
9802;DHT22;4940;50.900;4.672;2023-09-19T15:01:02;22.70;99.90
9802;DHT22;4940;50.900;4.672;2023-09-19T15:03:31;22.70;99.90
9802;DHT22;4940;50.900;4.672;2023-09-19T15:05:59;22.80;99.90
9802;DHT22;4940;50.900;4.672;2023-09-19T15:08:27;22.70;99.90
9802;DHT22;4940;50.900;4.672;2023-09-19T15:10:55;22.60;99.90
9802;DHT22;4940;50.900;4.672;2023-09-19T15:13:25;22.10;99.90
9802;DHT22;4940;50.900;4.672;2023-09-19T15:15:59;22.50;99.90
9802;DHT22;4940;50.900;4.672;2023-09-19T15:18:27;22.80;99.90
9802;DHT22;4940;50.900;4.672;2023-09-19T15:23:22;22.20;99.90
9802;DHT22;4940;50.900;4.672;2023-09-19T15:25:49;22.10;99.90
9802;DHT22;4940;50.900;4.672;2023-09-19T15:30:46;23.00;99.90
9802;DHT22;4940;50.900;4.672;2023-09-19T15:40:46;21.90;99.90
9802;DHT22;4940;50.900;4.672;2023-09-19T15:48:17;21.90;99.90
9802;DHT22;4940;50.900;4.672;2023-09-19T15:50:49;21.90;99.90
9802;DHT22;4940;50.900;4.672;2023-09-19T15:53:20;21.80;99.90
9802;DHT22;4940;50.900;4.672;2023-09-19T16:01:58;21.70;99.90
9802;DHT22;4940;50.900;4.672;2023-09-19T16:06:56;21.60;99.90
9802;DHT22;4940;50.900;4.672;2023-09-19T16:09:27;21.60;99.90
9802;DHT22;4940;50.900;4.672;2023-09-19T16:11:56;21.50;99.90
9802;DHT22;4940;50.900;4.672;2023-09-19T16:16:53;21.50;99.90
9802;DHT22;4940;50.900;4.672;2023-09-19T16:21:54;21.40;99.90
9802;DHT22;4940;50.900;4.672;2023-09-19T16:24:22;21.40;99.90
9802;DHT22;4940;50.900;4.672;2023-09-19T16:26:53;21.10;99.90
9802;DHT22;4940;50.900;4.672;2023-09-19T16:29:21;21.30;99.90
9802;DHT22;4940;50.900;4.672;2023-09-19T16:34:18;21.20;99.90
9802;DHT22;4940;50.900;4.672;2023-09-19T16:36:47;21.20;99.90
9802;DHT22;4940;50.900;4.672;2023-09-19T16:41:44;21.20;99.90
9802;DHT22;4940;50.900;4.672;2023-09-19T16:46:40;21.30;99.90
9802;DHT22;4940;50.900;4.672;2023-09-19T16:59:09;21.10;99.90
9802;DHT22;4940;50.900;4.672;2023-09-19T17:04:05;21.10;99.90
9802;DHT22;4940;50.900;4.672;2023-09-19T17:06:34;21.00;99.90
9802;DHT22;4940;50.900;4.672;2023-09-19T17:09:02;21.00;99.90
9802;DHT22;4940;50.900;4.672;2023-09-19T17:11:33;21.00;99.90
9802;DHT22;4940;50.900;4.672;2023-09-19T17:16:29;20.90;99.90
9802;DHT22;4940;50.900;4.672;2023-09-19T19:01:30;19.70;99.90
9802;DHT22;4940;50.900;4.672;2023-09-19T19:03:59;19.70;99.90
9802;DHT22;4940;50.900;4.672;2023-09-19T19:06:27;19.60;99.90
9802;DHT22;4940;50.900;4.672;2023-09-19T19:08:56;19.70;99.90
9802;DHT22;4940;50.900;4.672;2023-09-19T19:11:23;19.70;99.90
9802;DHT22;4940;50.900;4.672;2023-09-19T19:13:52;19.60;99.90
9802;DHT22;4940;50.900;4.672;2023-09-19T19:16:19;19.60;99.90
9802;DHT22;4940;50.900;4.672;2023-09-19T19:18:48;19.60;99.90
9802;DHT22;4940;50.900;4.672;2023-09-19T19:21:16;17.90;99.90
9802;DHT22;4940;50.900;4.672;2023-09-19T19:23:43;19.50;99.90
9802;DHT22;4940;50.900;4.672;2023-09-19T19:26:10;19.50;99.90
9802;DHT22;4940;50.900;4.672;2023-09-19T19:28:41;19.50;99.90
9802;DHT22;4940;50.900;4.672;2023-09-19T19:31:10;19.50;99.90
9802;DHT22;4940;50.900;4.672;2023-09-19T19:33:38;19.50;99.90
9802;DHT22;4940;50.900;4.672;2023-09-19T19:36:08;19.50;99.90
9802;DHT22;4940;50.900;4.672;2023-09-19T19:38:36;19.50;99.90
9802;DHT22;4940;50.900;4.672;2023-09-19T19:41:04;19.50;99.90
9802;DHT22;4940;50.900;4.672;2023-09-19T19:43:31;19.50;99.90
9802;DHT22;4940;50.900;4.672;2023-09-19T19:46:00;19.50;99.90
9802;DHT22;4940;50.900;4.672;2023-09-19T19:53:25;19.40;99.90
9802;DHT22;4940;50.900;4.672;2023-09-19T19:55:53;19.50;99.90
9802;DHT22;4940;50.900;4.672;2023-09-19T19:58:20;19.50;99.90
9802;DHT22;4940;50.900;4.672;2023-09-19T20:00:48;19.50;99.90
9802;DHT22;4940;50.900;4.672;2023-09-19T20:03:16;15.50;99.90
9802;DHT22;4940;50.900;4.672;2023-09-19T20:05:44;19.50;99.90
9802;DHT22;4940;50.900;4.672;2023-09-19T20:08:14;19.50;99.90
9802;DHT22;4940;50.900;4.672;2023-09-19T20:10:43;19.60;99.90
9802;DHT22;4940;50.900;4.672;2023-09-19T20:13:10;19.50;99.90
9802;DHT22;4940;50.900;4.672;2023-09-19T20:15:40;19.60;99.90
9802;DHT22;4940;50.900;4.672;2023-09-19T20:18:08;19.60;99.90
9802;DHT22;4940;50.900;4.672;2023-09-19T20:20:38;19.60;99.90
9802;DHT22;4940;50.900;4.672;2023-09-19T20:25:34;19.50;99.90
9802;DHT22;4940;50.900;4.672;2023-09-19T20:28:04;19.50;99.90
9802;DHT22;4940;50.900;4.672;2023-09-19T20:30:31;19.50;99.90
9802;DHT22;4940;50.900;4.672;2023-09-19T20:35:27;19.50;99.90
9802;DHT22;4940;50.900;4.672;2023-09-19T20:37:54;19.50;99.90
9802;DHT22;4940;50.900;4.672;2023-09-19T20:40:26;19.60;99.90
9802;DHT22;4940;50.900;4.672;2023-09-19T20:42:54;19.60;99.90
9802;DHT22;4940;50.900;4.672;2023-09-19T20:45:22;19.60;99.90
9802;DHT22;4940;50.900;4.672;2023-09-19T20:47:50;19.60;99.90
9802;DHT22;4940;50.900;4.672;2023-09-19T20:50:18;19.60;99.90
9802;DHT22;4940;50.900;4.672;2023-09-19T20:52:48;19.60;99.90
9802;DHT22;4940;50.900;4.672;2023-09-19T20:55:16;19.60;99.90
9802;DHT22;4940;50.900;4.672;2023-09-19T20:57:44;19.60;99.90
9802;DHT22;4940;50.900;4.672;2023-09-19T21:00:12;19.60;99.90
9802;DHT22;4940;50.900;4.672;2023-09-19T21:02:41;19.70;99.90
9802;DHT22;4940;50.900;4.672;2023-09-19T21:05:11;19.60;99.90
9802;DHT22;4940;50.900;4.672;2023-09-19T21:07:38;19.30;99.90
9802;DHT22;4940;50.900;4.672;2023-09-19T21:12:37;19.50;99.90
9802;DHT22;4940;50.900;4.672;2023-09-19T21:15:05;19.60;99.90